Time;durP1;ratioP1;P1;durP2;ratioP2;P2;SDS_P1;SDS_P2;PMS_P1;PMS_P2;Temp;Humidity;BMP_temperature;BMP_pressure;BME280_temperature;BME280_humidity;BME280_pressure;Samples;Min_cycle;Max_cycle;Signal;HPM_P1;HPM_P2
2023/10/26 00:02:07;;;;;;;;;;;11.10;99.90;;;;;;5082059;28;19928;-71
2023/10/26 00:04:33;;;;;;;;;;;11.10;99.90;;;;;;5081573;28;19980;-71
2023/10/26 00:07:00;;;;;;;;;;;11.10;99.90;;;;;;5084725;28;19983;-70
2023/10/26 00:09:27;;;;;;;;;;;11.10;99.90;;;;;;5084915;28;19921;-71
2023/10/26 00:11:54;;;;;;;;;;;11.10;99.90;;;;;;5085352;28;19951;-70
2023/10/26 00:14:22;;;;;;;;;;;11.20;99.90;;;;;;5085327;28;19929;-70
2023/10/26 00:16:48;;;;;;;;;;;11.20;99.90;;;;;;5084615;28;19966;-70
2023/10/26 00:19:15;;;;;;;;;;;11.20;99.90;;;;;;5085006;28;19920;-70
2023/10/26 00:21:41;;;;;;;;;;;11.20;99.90;;;;;;5083771;28;19927;-70
2023/10/26 00:24:08;;;;;;;;;;;11.20;99.90;;;;;;5085441;28;19920;-71
2023/10/26 00:26:35;;;;;;;;;;;11.20;99.90;;;;;;5087696;28;20185;-70
2023/10/26 00:29:01;;;;;;;;;;;11.20;99.90;;;;;;5084878;28;19996;-70
2023/10/26 00:31:29;;;;;;;;;;;11.20;99.90;;;;;;5085088;28;19920;-70
2023/10/26 00:33:56;;;;;;;;;;;11.20;99.90;;;;;;5085029;28;19983;-71
2023/10/26 00:36:23;;;;;;;;;;;11.20;99.90;;;;;;5084235;28;19921;-70
2023/10/26 00:38:49;;;;;;;;;;;11.30;99.90;;;;;;5085113;28;20161;-70
2023/10/26 00:41:16;;;;;;;;;;;11.30;99.90;;;;;;5084876;28;19995;-70
2023/10/26 00:43:42;;;;;;;;;;;11.30;99.90;;;;;;5084471;28;19920;-70
2023/10/26 00:46:10;;;;;;;;;;;11.30;99.90;;;;;;5084122;28;19934;-71
2023/10/26 00:48:38;;;;;;;;;;;11.30;99.90;;;;;;5084640;28;19932;-71
2023/10/26 00:51:05;;;;;;;;;;;11.30;99.90;;;;;;5089774;28;19927;-72
2023/10/26 00:53:33;;;;;;;;;;;11.30;99.90;;;;;;5084484;28;19971;-71
2023/10/26 00:55:59;;;;;;;;;;;11.30;99.90;;;;;;5084226;28;19920;-70
2023/10/26 00:58:26;;;;;;;;;;;11.40;99.90;;;;;;5084414;28;19987;-71
2023/10/26 01:00:53;;;;;;;;;;;11.40;99.90;;;;;;5084257;28;19983;-71
2023/10/26 01:03:20;;;;;;;;;;;11.30;99.90;;;;;;5084360;28;19956;-71
2023/10/26 01:05:48;;;;;;;;;;;11.40;99.90;;;;;;5083315;28;20020;-71
2023/10/26 01:08:14;;;;;;;;;;;11.30;99.90;;;;;;5084567;28;20228;-71
2023/10/26 01:10:41;;;;;;;;;;;11.30;99.90;;;;;;5084632;28;19928;-71
2023/10/26 01:13:09;;;;;;;;;;;11.30;99.90;;;;;;5089891;28;20170;-71
2023/10/26 01:15:36;;;;;;;;;;;11.30;99.90;;;;;;5092805;28;19920;-70
2023/10/26 01:18:02;;;;;;;;;;;11.30;99.90;;;;;;5083933;28;20122;-71
2023/10/26 01:20:29;;;;;;;;;;;11.30;99.90;;;;;;5083145;28;19952;-71
2023/10/26 01:22:57;;;;;;;;;;;11.30;99.90;;;;;;5084429;28;19928;-72
2023/10/26 01:25:24;;;;;;;;;;;11.30;99.90;;;;;;5083833;28;19962;-71
2023/10/26 01:27:51;;;;;;;;;;;11.30;99.90;;;;;;5084692;28;20109;-70
2023/10/26 01:30:17;;;;;;;;;;;11.30;99.90;;;;;;5084087;28;19928;-70
2023/10/26 01:32:44;;;;;;;;;;;11.20;99.90;;;;;;5083983;28;19920;-70
2023/10/26 01:35:11;;;;;;;;;;;11.30;99.90;;;;;;5083476;28;19921;-71
2023/10/26 01:37:38;;;;;;;;;;;11.30;99.90;;;;;;5083531;28;20117;-71
2023/10/26 01:40:07;;;;;;;;;;;11.30;99.90;;;;;;5083483;28;19955;-70
2023/10/26 01:42:34;;;;;;;;;;;11.30;99.90;;;;;;5083400;28;19974;-71
2023/10/26 01:45:00;;;;;;;;;;;11.30;99.90;;;;;;5087790;28;19952;-70
2023/10/26 01:47:27;;;;;;;;;;;11.30;99.90;;;;;;5085375;28;19995;-71
2023/10/26 01:49:52;;;;;;;;;;;11.30;99.90;;;;;;5083710;28;19975;-70
2023/10/26 01:52:19;;;;;;;;;;;11.30;99.90;;;;;;5083599;28;19917;-70
2023/10/26 01:54:46;;;;;;;;;;;11.30;99.90;;;;;;5088393;28;19951;-70
2023/10/26 01:57:14;;;;;;;;;;;11.30;99.90;;;;;;5083283;28;19936;-71
2023/10/26 01:59:41;;;;;;;;;;;11.30;99.90;;;;;;5083140;28;20261;-70
2023/10/26 02:02:07;;;;;;;;;;;11.30;99.90;;;;;;5083318;28;19984;-72
2023/10/26 02:04:34;;;;;;;;;;;11.30;99.90;;;;;;5083052;28;19920;-70
2023/10/26 02:07:01;;;;;;;;;;;11.30;99.90;;;;;;5083017;28;19927;-70
2023/10/26 02:09:27;;;;;;;;;;;11.30;99.90;;;;;;5083304;28;19983;-71
2023/10/26 02:11:54;;;;;;;;;;;11.30;99.90;;;;;;5083646;28;19980;-70
2023/10/26 02:14:22;;;;;;;;;;;11.30;99.90;;;;;;5083198;28;19920;-70
2023/10/26 02:16:49;;;;;;;;;;;11.30;99.90;;;;;;5083022;28;19979;-72
2023/10/26 02:19:16;;;;;;;;;;;11.30;99.90;;;;;;5083033;28;19920;-70
2023/10/26 02:21:42;;;;;;;;;;;11.20;99.90;;;;;;5083355;28;19983;-71
2023/10/26 02:24:09;;;;;;;;;;;11.20;99.90;;;;;;5083222;28;19991;-70
2023/10/26 02:26:36;;;;;;;;;;;11.20;99.90;;;;;;5082721;28;19967;-70
2023/10/26 02:29:02;;;;;;;;;;;11.20;99.90;;;;;;5082858;28;20344;-70
2023/10/26 02:31:30;;;;;;;;;;;11.20;99.90;;;;;;5083124;28;19979;-70
2023/10/26 02:33:57;;;;;;;;;;;11.20;99.90;;;;;;5083014;28;19956;-70
2023/10/26 02:36:24;;;;;;;;;;;11.20;99.90;;;;;;5082228;28;19928;-70
2023/10/26 02:38:50;;;;;;;;;;;11.10;99.90;;;;;;5082986;28;20570;-70
2023/10/26 02:41:17;;;;;;;;;;;11.20;99.90;;;;;;5083035;28;19967;-70
2023/10/26 02:43:44;;;;;;;;;;;11.20;99.90;;;;;;5082961;28;19956;-71
2023/10/26 02:46:11;;;;;;;;;;;11.20;99.90;;;;;;5082492;28;20336;-70
2023/10/26 02:48:39;;;;;;;;;;;11.20;99.90;;;;;;5082862;28;19920;-71
2023/10/26 02:51:05;;;;;;;;;;;11.20;99.90;;;;;;5082739;28;19956;-70
2023/10/26 02:53:33;;;;;;;;;;;11.20;99.90;;;;;;5082434;28;19928;-71
2023/10/26 02:56:00;;;;;;;;;;;11.20;99.90;;;;;;5078026;28;19924;-70
2023/10/26 02:58:26;;;;;;;;;;;11.20;99.90;;;;;;5080599;28;19963;-70
2023/10/26 03:00:53;;;;;;;;;;;11.20;99.90;;;;;;5082834;28;19920;-70
2023/10/26 03:03:20;;;;;;;;;;;11.30;99.90;;;;;;5082773;28;19962;-72
2023/10/26 03:05:48;;;;;;;;;;;11.20;99.90;;;;;;5080986;28;19927;-70
2023/10/26 03:08:14;;;;;;;;;;;11.20;99.90;;;;;;5082941;28;19962;-70
2023/10/26 03:10:41;;;;;;;;;;;11.20;99.90;;;;;;5082470;28;20273;-70
2023/10/26 03:13:08;;;;;;;;;;;11.20;99.90;;;;;;5082588;28;19984;-72
2023/10/26 03:15:35;;;;;;;;;;;11.20;99.90;;;;;;5082147;28;19966;-70
2023/10/26 03:18:02;;;;;;;;;;;11.20;99.90;;;;;;5082777;28;19920;-70
2023/10/26 03:20:28;;;;;;;;;;;11.20;99.90;;;;;;5082402;28;19983;-70
2023/10/26 03:22:56;;;;;;;;;;;11.20;99.90;;;;;;5081972;28;19928;-70
2023/10/26 03:25:23;;;;;;;;;;;11.20;99.90;;;;;;5081594;28;20044;-71
2023/10/26 03:27:49;;;;;;;;;;;11.20;99.90;;;;;;5081876;28;19984;-71
2023/10/26 03:30:17;;;;;;;;;;;11.20;99.90;;;;;;5082222;28;20177;-70
2023/10/26 03:32:44;;;;;;;;;;;11.20;99.90;;;;;;5082299;28;19988;-70
2023/10/26 03:35:11;;;;;;;;;;;11.20;99.90;;;;;;5081336;28;19921;-71
2023/10/26 03:37:38;;;;;;;;;;;11.20;99.90;;;;;;5081948;28;19983;-70
2023/10/26 03:40:06;;;;;;;;;;;11.20;99.90;;;;;;5084152;28;19952;-70
2023/10/26 03:42:33;;;;;;;;;;;11.20;99.90;;;;;;5086131;28;19952;-71
2023/10/26 03:45:00;;;;;;;;;;;11.20;99.90;;;;;;5085678;28;19983;-70
2023/10/26 03:47:26;;;;;;;;;;;11.20;99.90;;;;;;5085199;28;20261;-70
2023/10/26 03:49:53;;;;;;;;;;;11.20;99.90;;;;;;5085728;28;20303;-70
2023/10/26 03:52:20;;;;;;;;;;;11.20;99.90;;;;;;5085909;28;19983;-71
2023/10/26 03:54:47;;;;;;;;;;;11.20;99.90;;;;;;5085705;28;19970;-70
2023/10/26 03:57:15;;;;;;;;;;;11.20;99.90;;;;;;5085921;28;19927;-70
2023/10/26 03:59:42;;;;;;;;;;;11.20;99.90;;;;;;5085630;28;19920;-70
2023/10/26 04:02:09;;;;;;;;;;;11.20;99.90;;;;;;5087630;28;20281;-70
2023/10/26 04:04:36;;;;;;;;;;;11.20;99.90;;;;;;5087317;28;19979;-70
2023/10/26 04:07:02;;;;;;;;;;;11.20;99.90;;;;;;5085449;28;19980;-70
2023/10/26 04:09:29;;;;;;;;;;;11.20;99.90;;;;;;5085827;28;19962;-70
2023/10/26 04:11:55;;;;;;;;;;;11.20;99.90;;;;;;5085228;28;20223;-70
2023/10/26 04:14:23;;;;;;;;;;;11.20;99.90;;;;;;5085475;28;19927;-71
2023/10/26 04:16:50;;;;;;;;;;;11.20;99.90;;;;;;5084898;28;19920;-70
2023/10/26 04:19:16;;;;;;;;;;;11.20;99.90;;;;;;5085254;28;19979;-71
2023/10/26 04:21:43;;;;;;;;;;;11.20;99.90;;;;;;5088678;28;19920;-70
2023/10/26 04:24:10;;;;;;;;;;;11.20;99.90;;;;;;5085120;28;19980;-70
2023/10/26 04:26:36;;;;;;;;;;;11.20;99.90;;;;;;5084780;28;19989;-70
2023/10/26 04:29:05;;;;;;;;;;;11.20;99.90;;;;;;5082175;28;19921;-70
2023/10/26 04:31:33;;;;;;;;;;;11.20;99.90;;;;;;5085252;28;19921;-70
2023/10/26 04:33:59;;;;;;;;;;;11.20;99.90;;;;;;5085300;28;19959;-70
2023/10/26 04:36:27;;;;;;;;;;;11.10;99.90;;;;;;5083945;28;19928;-70
2023/10/26 04:38:53;;;;;;;;;;;11.10;99.90;;;;;;5084376;28;20160;-71
2023/10/26 04:41:20;;;;;;;;;;;11.10;99.90;;;;;;5084997;28;19926;-71
2023/10/26 04:43:46;;;;;;;;;;;11.10;99.90;;;;;;5084790;28;19927;-70
2023/10/26 04:46:13;;;;;;;;;;;11.10;99.90;;;;;;5084511;28;19939;-71
2023/10/26 04:48:41;;;;;;;;;;;11.10;99.90;;;;;;5084512;28;19987;-70
2023/10/26 04:51:08;;;;;;;;;;;11.10;99.90;;;;;;5083985;28;19959;-71
2023/10/26 04:53:35;;;;;;;;;;;11.10;99.90;;;;;;5084797;28;20087;-71
2023/10/26 04:56:02;;;;;;;;;;;11.10;99.90;;;;;;5084577;28;19989;-71
2023/10/26 04:58:29;;;;;;;;;;;11.10;99.90;;;;;;5084409;28;19921;-71
2023/10/26 05:00:56;;;;;;;;;;;11.10;99.90;;;;;;5084177;28;19987;-71
2023/10/26 05:03:22;;;;;;;;;;;11.10;99.90;;;;;;5084330;28;19980;-70
2023/10/26 05:05:50;;;;;;;;;;;11.10;99.90;;;;;;5084010;28;19982;-71
2023/10/26 05:08:17;;;;;;;;;;;11.00;99.90;;;;;;5084874;28;20222;-71
2023/10/26 05:10:43;;;;;;;;;;;11.00;99.90;;;;;;5084872;28;19988;-71
2023/10/26 05:13:10;;;;;;;;;;;11.10;99.90;;;;;;5086432;28;20258;-71
2023/10/26 05:15:37;;;;;;;;;;;11.00;99.90;;;;;;5083638;28;20333;-71
2023/10/26 05:18:04;;;;;;;;;;;11.00;99.90;;;;;;5087545;28;19955;-71
2023/10/26 05:20:32;;;;;;;;;;;11.00;99.90;;;;;;5084153;28;19925;-71
2023/10/26 05:23:01;;;;;;;;;;;11.00;99.90;;;;;;5084105;28;19920;-70
2023/10/26 05:25:28;;;;;;;;;;;11.00;99.90;;;;;;5083690;28;19934;-71
2023/10/26 05:27:55;;;;;;;;;;;11.00;99.90;;;;;;5084360;28;19942;-70
2023/10/26 05:30:22;;;;;;;;;;;11.00;99.90;;;;;;5083949;28;19983;-70
2023/10/26 05:32:48;;;;;;;;;;;11.00;99.90;;;;;;5084371;28;20160;-74
2023/10/26 05:35:15;;;;;;;;;;;11.00;99.90;;;;;;5083592;28;19951;-75
2023/10/26 05:37:41;;;;;;;;;;;11.10;99.90;;;;;;5083824;28;20011;-70
2023/10/26 05:40:10;;;;;;;;;;;11.00;99.90;;;;;;5083644;28;20110;-70
2023/10/26 05:42:37;;;;;;;;;;;11.00;99.90;;;;;;5083750;28;19968;-70
2023/10/26 05:45:04;;;;;;;;;;;11.10;99.90;;;;;;5083549;28;19979;-70
2023/10/26 05:47:31;;;;;;;;;;;11.10;99.90;;;;;;5083385;28;20236;-71
2023/10/26 05:49:57;;;;;;;;;;;11.00;99.90;;;;;;5083620;28;19927;-70
2023/10/26 05:52:24;;;;;;;;;;;11.00;99.90;;;;;;5083529;28;20226;-70
2023/10/26 05:54:51;;;;;;;;;;;11.00;99.90;;;;;;5081483;28;20265;-72
2023/10/26 05:57:19;;;;;;;;;;;11.00;99.90;;;;;;5081016;28;20245;-71
2023/10/26 05:59:46;;;;;;;;;;;11.00;99.90;;;;;;5084499;28;19952;-70
2023/10/26 06:02:13;;;;;;;;;;;11.00;99.90;;;;;;5083110;28;19988;-70
2023/10/26 06:04:39;;;;;;;;;;;11.00;99.90;;;;;;5082390;28;19921;-71
2023/10/26 06:07:06;;;;;;;;;;;11.00;99.90;;;;;;5083352;28;20118;-70
2023/10/26 06:09:32;;;;;;;;;;;11.00;99.90;;;;;;5083183;28;19979;-70
2023/10/26 06:11:59;;;;;;;;;;;11.00;99.90;;;;;;5080676;28;19938;-70
2023/10/26 06:14:27;;;;;;;;;;;11.00;99.90;;;;;;5082735;28;19921;-70
2023/10/26 06:16:54;;;;;;;;;;;11.00;99.90;;;;;;5075666;28;19980;-72
2023/10/26 06:19:20;;;;;;;;;;;11.00;99.90;;;;;;5083213;28;19920;-72
2023/10/26 06:21:47;;;;;;;;;;;11.00;99.90;;;;;;5082806;28;19920;-70
2023/10/26 06:24:13;;;;;;;;;;;11.00;99.90;;;;;;5083290;28;19963;-70
2023/10/26 06:26:40;;;;;;;;;;;10.90;99.90;;;;;;5082524;28;20109;-71
2023/10/26 06:29:07;;;;;;;;;;;10.90;99.90;;;;;;5083396;28;19921;-70
2023/10/26 06:31:35;;;;;;;;;;;10.90;99.90;;;;;;5082889;28;19926;-70
2023/10/26 06:34:02;;;;;;;;;;;11.00;99.90;;;;;;5082710;28;19978;-71
2023/10/26 06:36:28;;;;;;;;;;;10.90;99.90;;;;;;5082778;28;19983;-70
2023/10/26 06:38:56;;;;;;;;;;;10.90;99.90;;;;;;5082797;28;19995;-70
2023/10/26 06:41:23;;;;;;;;;;;10.90;99.90;;;;;;5082792;28;20210;-72
2023/10/26 06:43:49;;;;;;;;;;;10.80;99.90;;;;;;5082816;28;19959;-70
2023/10/26 06:46:16;;;;;;;;;;;10.90;99.90;;;;;;5089503;28;19938;-70
2023/10/26 06:48:44;;;;;;;;;;;11.00;99.90;;;;;;5083680;28;19921;-72
2023/10/26 06:51:10;;;;;;;;;;;10.90;99.90;;;;;;5082660;28;19964;-70
2023/10/26 06:53:37;;;;;;;;;;;10.90;99.90;;;;;;5081496;28;19956;-71
2023/10/26 06:56:10;;;;;;;;;;;10.90;99.90;;;;;;5079508;28;19920;-70
2023/10/26 06:58:36;;;;;;;;;;;10.90;99.90;;;;;;5081372;28;19970;-70
2023/10/26 07:01:05;;;;;;;;;;;10.90;99.90;;;;;;5088218;28;20088;-71
2023/10/26 07:03:31;;;;;;;;;;;10.90;99.90;;;;;;5082206;28;19988;-70
2023/10/26 07:06:02;;;;;;;;;;;10.90;99.90;;;;;;5085462;28;19928;-70
2023/10/26 07:08:28;;;;;;;;;;;10.90;99.90;;;;;;5082755;28;19936;-69
2023/10/26 07:10:55;;;;;;;;;;;10.90;99.90;;;;;;5079653;28;20532;-70
2023/10/26 07:13:22;;;;;;;;;;;10.90;99.90;;;;;;5079898;28;19921;-71
2023/10/26 07:15:49;;;;;;;;;;;10.90;99.90;;;;;;5085087;28;20215;-71
2023/10/26 07:18:18;;;;;;;;;;;11.00;99.90;;;;;;5086707;28;19958;-71
2023/10/26 07:20:45;;;;;;;;;;;10.90;99.90;;;;;;5083617;28;19920;-70
2023/10/26 07:23:13;;;;;;;;;;;10.90;99.90;;;;;;5086530;28;19987;-71
2023/10/26 07:25:39;;;;;;;;;;;10.90;99.90;;;;;;5085236;28;19959;-71
2023/10/26 07:28:06;;;;;;;;;;;10.90;99.90;;;;;;5085737;28;19991;-70
2023/10/26 07:30:32;;;;;;;;;;;11.00;99.90;;;;;;5086344;28;20185;-70
2023/10/26 07:32:59;;;;;;;;;;;10.90;99.90;;;;;;5086426;28;19927;-70
2023/10/26 07:35:26;;;;;;;;;;;10.90;99.90;;;;;;5085403;28;19929;-70
2023/10/26 07:37:52;;;;;;;;;;;10.90;99.90;;;;;;5085328;28;19920;-70
2023/10/26 07:40:20;;;;;;;;;;;11.00;99.90;;;;;;5084171;28;19924;-70
2023/10/26 07:42:48;;;;;;;;;;;11.00;99.90;;;;;;5079591;28;19927;-70
2023/10/26 07:45:15;;;;;;;;;;;11.10;99.90;;;;;;5075431;28;19948;-70
2023/10/26 07:47:41;;;;;;;;;;;11.10;99.90;;;;;;5077740;28;20117;-70
2023/10/26 07:50:08;;;;;;;;;;;11.10;99.90;;;;;;5075388;28;19927;-70
2023/10/26 07:52:34;;;;;;;;;;;11.10;99.90;;;;;;5072405;28;20283;-70
2023/10/26 07:55:02;;;;;;;;;;;11.10;99.90;;;;;;5081271;28;19928;-70
2023/10/26 07:57:31;;;;;;;;;;;11.20;99.90;;;;;;5078384;28;20301;-71
2023/10/26 07:59:57;;;;;;;;;;;11.30;99.90;;;;;;5076134;28;19928;-70
2023/10/26 08:02:24;;;;;;;;;;;11.30;99.90;;;;;;5079391;28;19999;-71
2023/10/26 08:04:50;;;;;;;;;;;11.40;99.90;;;;;;5071130;28;20230;-70
2023/10/26 08:07:17;;;;;;;;;;;11.50;99.90;;;;;;5080138;28;19983;-70
2023/10/26 08:09:44;;;;;;;;;;;11.40;99.90;;;;;;5080001;28;20344;-71
2023/10/26 08:12:11;;;;;;;;;;;11.50;99.90;;;;;;5074106;28;19920;-70
2023/10/26 08:14:39;;;;;;;;;;;11.50;99.90;;;;;;5071881;28;19967;-70
2023/10/26 08:17:06;;;;;;;;;;;11.50;99.90;;;;;;5076854;28;19987;-70
2023/10/26 08:19:32;;;;;;;;;;;11.60;99.90;;;;;;5072955;28;20266;-71
2023/10/26 08:21:59;;;;;;;;;;;11.60;99.90;;;;;;5068209;28;19920;-70
2023/10/26 08:24:27;;;;;;;;;;;11.60;99.90;;;;;;5074817;28;19971;-72
2023/10/26 08:26:53;;;;;;;;;;;11.60;99.90;;;;;;5071030;28;19988;-71
2023/10/26 08:29:20;;;;;;;;;;;11.70;99.90;;;;;;5079491;28;20018;-70
2023/10/26 08:31:48;;;;;;;;;;;11.70;99.90;;;;;;5076730;28;19920;-72
2023/10/26 08:34:15;;;;;;;;;;;11.70;99.90;;;;;;5077353;28;20165;-70
2023/10/26 08:36:41;;;;;;;;;;;11.70;99.90;;;;;;5070483;28;19984;-71
2023/10/26 08:39:08;;;;;;;;;;;11.80;99.90;;;;;;5080375;28;19921;-70
2023/10/26 08:41:34;;;;;;;;;;;11.80;99.90;;;;;;5077585;28;19948;-70
2023/10/26 08:44:01;;;;;;;;;;;11.70;99.90;;;;;;5074725;28;19927;-71
2023/10/26 08:46:29;;;;;;;;;;;11.70;99.90;;;;;;5074432;28;19948;-70
2023/10/26 08:48:57;;;;;;;;;;;11.70;99.90;;;;;;5074545;28;19928;-71
2023/10/26 08:51:24;;;;;;;;;;;11.80;99.90;;;;;;5076720;28;19983;-71
2023/10/26 08:53:51;;;;;;;;;;;11.80;99.90;;;;;;5071485;28;20289;-71
2023/10/26 08:56:20;;;;;;;;;;;11.90;99.90;;;;;;5073299;28;19958;-71
2023/10/26 08:58:47;;;;;;;;;;;11.80;99.90;;;;;;5069209;28;19920;-70
2023/10/26 09:01:14;;;;;;;;;;;11.90;99.90;;;;;;5080243;28;19967;-70
2023/10/26 09:03:41;;;;;;;;;;;11.90;99.90;;;;;;5070844;28;19925;-70
2023/10/26 09:06:09;;;;;;;;;;;11.90;99.90;;;;;;5077703;28;20151;-70
2023/10/26 09:08:36;;;;;;;;;;;12.00;99.90;;;;;;5076902;28;19959;-72
2023/10/26 09:11:10;;;;;;;;;;;12.00;99.90;;;;;;5076523;28;19936;-70
2023/10/26 09:13:37;;;;;;;;;;;11.90;99.90;;;;;;5070672;28;19971;-70
2023/10/26 09:16:04;;;;;;;;;;;12.00;99.90;;;;;;5071893;28;20117;-71
2023/10/26 09:18:31;;;;;;;;;;;11.90;99.90;;;;;;5080250;28;20330;-71
2023/10/26 09:21:07;;;;;;;;;;;11.90;99.90;;;;;;5070786;28;19952;-70
2023/10/26 09:23:36;;;;;;;;;;;11.90;99.90;;;;;;5073705;28;19956;-71
2023/10/26 09:26:04;;;;;;;;;;;11.90;99.90;;;;;;5083393;28;19928;-70
2023/10/26 09:28:31;;;;;;;;;;;11.90;99.90;;;;;;5082460;28;19921;-71
2023/10/26 09:30:59;;;;;;;;;;;12.00;99.90;;;;;;5079410;28;19987;-70
2023/10/26 09:33:27;;;;;;;;;;;12.10;99.90;;;;;;5083319;28;19959;-70
2023/10/26 09:35:53;;;;;;;;;;;12.20;99.90;;;;;;5081419;28;19991;-70
2023/10/26 09:38:35;;;;;;;;;;;12.30;99.90;;;;;;5082792;28;19956;-70
2023/10/26 09:41:03;;;;;;;;;;;12.40;99.90;;;;;;5072951;28;19924;-70
2023/10/26 09:43:29;;;;;;;;;;;12.40;99.90;;;;;;5076537;28;19920;-70
2023/10/26 09:45:56;;;;;;;;;;;12.50;99.90;;;;;;5074302;28;19947;-70
2023/10/26 09:48:23;;;;;;;;;;;12.50;99.90;;;;;;5083851;28;20171;-71
2023/10/26 09:50:51;;;;;;;;;;;12.60;99.90;;;;;;5073553;28;20238;-70
2023/10/26 09:53:18;;;;;;;;;;;12.60;99.90;;;;;;5072866;28;19920;-70
2023/10/26 09:55:48;;;;;;;;;;;12.60;99.90;;;;;;5076877;28;19958;-70
2023/10/26 09:58:16;;;;;;;;;;;12.60;99.90;;;;;;5071748;28;19956;-70
2023/10/26 10:00:43;;;;;;;;;;;12.60;99.90;;;;;;5080782;28;19991;-70
2023/10/26 10:03:10;;;;;;;;;;;12.60;99.90;;;;;;5073052;28;19921;-70
2023/10/26 10:05:37;;;;;;;;;;;12.60;99.90;;;;;;5074030;28;21218;-70
2023/10/26 10:08:04;;;;;;;;;;;12.60;99.90;;;;;;5074213;28;19929;-70
2023/10/26 10:10:30;;;;;;;;;;;12.70;99.90;;;;;;5076009;28;19967;-70
2023/10/26 10:12:58;;;;;;;;;;;12.70;99.90;;;;;;5072062;28;19991;-70
2023/10/26 10:15:35;;;;;;;;;;;12.70;99.90;;;;;;5075173;28;20193;-70
2023/10/26 10:18:02;;;;;;;;;;;12.80;99.90;;;;;;5075965;28;20130;-70
2023/10/26 10:20:30;;;;;;;;;;;12.80;99.90;;;;;;5077684;28;19977;-70
2023/10/26 10:22:58;;;;;;;;;;;12.90;99.90;;;;;;5072069;28;20265;-70
2023/10/26 10:25:40;;;;;;;;;;;12.90;99.90;;;;;;5075956;28;20083;-70
2023/10/26 10:28:11;;;;;;;;;;;12.90;99.90;;;;;;5069720;28;19995;-70
2023/10/26 10:30:47;;;;;;;;;;;12.90;99.90;;;;;;5072733;28;19927;-70
2023/10/26 10:33:21;;;;;;;;;;;13.00;99.90;;;;;;5076002;28;19959;-70
2023/10/26 10:35:51;;;;;;;;;;;12.90;99.90;;;;;;5074796;28;19980;-70
2023/10/26 10:38:18;;;;;;;;;;;13.00;99.90;;;;;;5077437;28;19920;-70
2023/10/26 10:41:00;;;;;;;;;;;13.00;99.90;;;;;;5068058;28;19921;-70
2023/10/26 10:43:32;;;;;;;;;;;13.00;99.90;;;;;;5065133;28;20219;-70
2023/10/26 10:46:09;;;;;;;;;;;13.00;99.90;;;;;;5068909;28;19971;-70
2023/10/26 10:48:36;;;;;;;;;;;12.90;99.90;;;;;;5069208;28;19928;-70
2023/10/26 10:51:03;;;;;;;;;;;12.90;99.90;;;;;;5075103;28;19956;-70
2023/10/26 10:53:31;;;;;;;;;;;12.90;99.90;;;;;;5075498;28;19993;-70
2023/10/26 10:55:59;;;;;;;;;;;12.80;99.90;;;;;;5068592;28;20207;-70
2023/10/26 10:58:36;;;;;;;;;;;12.70;99.90;;;;;;5069135;28;19928;-70
2023/10/26 11:01:04;;;;;;;;;;;12.70;99.90;;;;;;5069564;28;19921;-70
2023/10/26 11:03:31;;;;;;;;;;;12.60;99.90;;;;;;5071893;28;19988;-71
2023/10/26 11:05:57;;;;;;;;;;;12.60;99.90;;;;;;5070189;28;19921;-70
2023/10/26 11:08:24;;;;;;;;;;;12.50;99.90;;;;;;5071318;28;19921;-70
2023/10/26 11:10:51;;;;;;;;;;;12.40;99.90;;;;;;5068891;28;20253;-70
2023/10/26 11:13:19;;;;;;;;;;;12.40;99.90;;;;;;5071848;28;19921;-72
2023/10/26 11:15:45;;;;;;;;;;;12.30;99.90;;;;;;5071983;28;19988;-70
2023/10/26 11:18:13;;;;;;;;;;;12.20;99.90;;;;;;5077058;28;19921;-70
2023/10/26 11:20:41;;;;;;;;;;;12.10;99.90;;;;;;5068355;28;19996;-71
2023/10/26 11:23:08;;;;;;;;;;;12.00;99.90;;;;;;5074234;28;19920;-70
2023/10/26 11:25:35;;;;;;;;;;;12.00;99.90;;;;;;5073997;28;19968;-70
2023/10/26 11:28:02;;;;;;;;;;;12.00;99.90;;;;;;5069063;28;19987;-70
2023/10/26 11:30:28;;;;;;;;;;;12.00;99.90;;;;;;5088583;28;19959;-71
2023/10/26 11:32:55;;;;;;;;;;;11.90;99.90;;;;;;5082179;28;20113;-70
2023/10/26 11:35:25;;;;;;;;;;;11.90;99.90;;;;;;5081054;28;19988;-70
2023/10/26 11:37:52;;;;;;;;;;;11.90;99.90;;;;;;5081462;28;19920;-70
2023/10/26 11:40:19;;;;;;;;;;;12.00;99.90;;;;;;5079078;28;19927;-70
2023/10/26 11:42:49;;;;;;;;;;;12.00;99.90;;;;;;5080787;28;19927;-70
2023/10/26 11:45:16;;;;;;;;;;;12.10;99.90;;;;;;5081525;28;19920;-70
2023/10/26 11:47:50;;;;;;;;;;;12.00;99.90;;;;;;5078705;28;19991;-70
2023/10/26 11:50:20;;;;;;;;;;;11.90;99.90;;;;;;5081888;28;20107;-70
2023/10/26 11:52:48;;;;;;;;;;;12.00;99.90;;;;;;5081710;28;19956;-70
2023/10/26 11:55:15;;;;;;;;;;;12.00;99.90;;;;;;5078607;28;19999;-70
2023/10/26 11:57:42;;;;;;;;;;;12.10;99.90;;;;;;5078275;28;19932;-70
2023/10/26 12:00:09;;;;;;;;;;;12.10;99.90;;;;;;5081150;28;19927;-70
2023/10/26 12:02:36;;;;;;;;;;;12.20;99.90;;;;;;5085649;28;20105;-70
2023/10/26 12:05:03;;;;;;;;;;;12.20;99.90;;;;;;5084925;28;19959;-69
2023/10/26 12:07:30;;;;;;;;;;;12.20;99.90;;;;;;5085032;28;20218;-70
2023/10/26 12:09:58;;;;;;;;;;;12.30;99.90;;;;;;5085021;28;20380;-70
2023/10/26 12:12:25;;;;;;;;;;;12.30;99.90;;;;;;5085044;28;19952;-70
2023/10/26 12:14:52;;;;;;;;;;;12.30;99.90;;;;;;5085287;28;20258;-70
2023/10/26 12:17:18;;;;;;;;;;;12.30;99.90;;;;;;5084810;28;19979;-70
2023/10/26 12:19:45;;;;;;;;;;;12.30;99.90;;;;;;5084920;28;20019;-71
2023/10/26 12:22:11;;;;;;;;;;;12.40;99.90;;;;;;5088303;28;20233;-70
2023/10/26 12:24:38;;;;;;;;;;;12.40;99.90;;;;;;5083194;28;19920;-71
2023/10/26 12:27:06;;;;;;;;;;;12.40;99.90;;;;;;5082837;28;19927;-70
2023/10/26 12:29:33;;;;;;;;;;;12.40;99.90;;;;;;5085030;28;19955;-70
2023/10/26 12:31:59;;;;;;;;;;;12.40;99.90;;;;;;5085035;28;19927;-70
2023/10/26 12:34:26;;;;;;;;;;;12.40;99.90;;;;;;5084886;28;19921;-70
2023/10/26 12:36:52;;;;;;;;;;;12.40;99.90;;;;;;5082729;28;19987;-70
2023/10/26 12:39:19;;;;;;;;;;;12.40;99.90;;;;;;5081704;28;19921;-69
2023/10/26 12:41:46;;;;;;;;;;;12.30;99.90;;;;;;5083830;28;19927;-71
2023/10/26 12:44:15;;;;;;;;;;;12.30;99.90;;;;;;5088207;28;20011;-71
2023/10/26 12:46:42;;;;;;;;;;;12.40;99.90;;;;;;5080950;28;19920;-71
2023/10/26 12:49:09;;;;;;;;;;;12.30;99.90;;;;;;5084667;28;20326;-71
2023/10/26 12:51:35;;;;;;;;;;;12.40;99.90;;;;;;5084704;28;19988;-71
2023/10/26 12:54:02;;;;;;;;;;;12.40;99.90;;;;;;5084383;28;19995;-71
2023/10/26 12:56:29;;;;;;;;;;;12.50;99.90;;;;;;5087262;28;19936;-71
2023/10/26 12:58:55;;;;;;;;;;;12.50;99.90;;;;;;5089453;28;20304;-71
2023/10/26 13:01:24;;;;;;;;;;;12.60;99.90;;;;;;5083978;28;19928;-71
2023/10/26 13:03:51;;;;;;;;;;;12.60;99.90;;;;;;5084233;28;19927;-71
2023/10/26 13:06:18;;;;;;;;;;;12.70;99.90;;;;;;5085527;28;19921;-70
2023/10/26 13:08:45;;;;;;;;;;;12.60;99.90;;;;;;5084082;28;19956;-71
2023/10/26 13:11:12;;;;;;;;;;;12.60;99.90;;;;;;5083179;28;19992;-71
2023/10/26 13:13:39;;;;;;;;;;;12.60;99.90;;;;;;5086414;28;20180;-70
2023/10/26 13:16:08;;;;;;;;;;;12.60;99.90;;;;;;5082860;28;20181;-71
2023/10/26 13:18:36;;;;;;;;;;;12.50;99.90;;;;;;5083520;28;20152;-71
2023/10/26 13:21:03;;;;;;;;;;;12.50;99.90;;;;;;5083464;28;19979;-71
2023/10/26 13:23:30;;;;;;;;;;;12.50;99.90;;;;;;5086272;28;19987;-73
2023/10/26 13:25:56;;;;;;;;;;;12.50;99.90;;;;;;5081613;28;19992;-71
2023/10/26 13:28:23;;;;;;;;;;;12.50;99.90;;;;;;5083739;28;19964;-71
2023/10/26 13:30:50;;;;;;;;;;;12.60;99.90;;;;;;5083614;28;20206;-70
2023/10/26 13:33:16;;;;;;;;;;;12.60;99.90;;;;;;5083845;28;19932;-69
2023/10/26 13:35:45;;;;;;;;;;;12.60;99.90;;;;;;5083334;28;19984;-72
2023/10/26 13:38:13;;;;;;;;;;;12.60;99.90;;;;;;5079589;28;19979;-70
2023/10/26 13:40:39;;;;;;;;;;;12.60;99.90;;;;;;5083524;28;20210;-73
2023/10/26 13:43:06;;;;;;;;;;;12.60;99.90;;;;;;5082116;28;19928;-70
2023/10/26 13:45:33;;;;;;;;;;;12.60;99.90;;;;;;5082959;28;19920;-70
2023/10/26 13:48:00;;;;;;;;;;;12.50;99.90;;;;;;5082955;28;19920;-70
2023/10/26 13:50:27;;;;;;;;;;;12.60;99.90;;;;;;5081504;28;19956;-72
2023/10/26 13:52:55;;;;;;;;;;;12.60;99.90;;;;;;5083392;28;20110;-72
2023/10/26 13:55:21;;;;;;;;;;;12.60;99.90;;;;;;5075231;28;20252;-77
2023/10/26 13:57:48;;;;;;;;;;;12.70;99.90;;;;;;5086033;28;19979;-76
2023/10/26 14:00:15;;;;;;;;;;;12.70;99.90;;;;;;5081330;28;19920;-72
2023/10/26 14:02:41;;;;;;;;;;;12.90;99.90;;;;;;5083532;28;19976;-72
2023/10/26 14:05:08;;;;;;;;;;;13.00;99.90;;;;;;5082849;28;19999;-72
2023/10/26 14:07:35;;;;;;;;;;;13.10;99.90;;;;;;5082715;28;19921;-74
2023/10/26 14:10:04;;;;;;;;;;;13.20;99.90;;;;;;5081920;28;19962;-72
2023/10/26 14:12:31;;;;;;;;;;;13.30;99.90;;;;;;5082430;28;19921;-72
2023/10/26 14:14:58;;;;;;;;;;;13.40;99.90;;;;;;5080812;28;20137;-70
2023/10/26 14:17:24;;;;;;;;;;;13.40;99.90;;;;;;5085141;28;19983;-72